createdAt,value
2018-05-09T00:00:52.589Z,49.80
2018-05-09T00:03:20.142Z,50.10
2018-05-09T00:05:47.727Z,50.10
2018-05-09T00:08:16.075Z,51.30
2018-05-09T00:10:43.630Z,51.30
2018-05-09T00:13:11.212Z,51.70
2018-05-09T00:15:38.767Z,52.00
2018-05-09T00:18:06.374Z,52.20
2018-05-09T00:20:33.934Z,52.30
2018-05-09T00:23:01.542Z,51.60
2018-05-09T00:25:29.130Z,51.30
2018-05-09T00:27:57.511Z,51.00
2018-05-09T00:30:25.862Z,50.90
2018-05-09T00:32:53.491Z,50.90
2018-05-09T00:35:21.099Z,51.20
2018-05-09T00:37:49.421Z,51.70
2018-05-09T00:40:17.164Z,51.70
2018-05-09T00:42:44.747Z,51.90
2018-05-09T00:45:12.331Z,51.90
2018-05-09T00:47:39.920Z,51.80
2018-05-09T00:50:08.306Z,52.60
2018-05-09T00:52:36.666Z,52.00
2018-05-09T00:55:04.254Z,52.00
2018-05-09T00:57:32.601Z,52.40
2018-05-09T01:00:00.158Z,52.40
2018-05-09T01:02:27.739Z,52.50
2018-05-09T01:04:55.329Z,52.60
2018-05-09T01:07:22.926Z,52.70
2018-05-09T01:09:51.278Z,52.90
2018-05-09T01:12:18.941Z,52.90
2018-05-09T01:14:46.474Z,52.70
2018-05-09T01:17:14.063Z,52.70
2018-05-09T01:19:41.617Z,52.70
2018-05-09T01:22:09.203Z,52.70
2018-05-09T01:24:37.547Z,52.10
2018-05-09T01:27:05.147Z,52.10
2018-05-09T01:29:33.498Z,52.40
2018-05-09T01:32:01.053Z,52.30
2018-05-09T01:34:28.667Z,52.50
2018-05-09T01:36:56.228Z,52.50
2018-05-09T01:39:23.794Z,52.50
2018-05-09T01:41:51.410Z,52.50
2018-05-09T01:44:18.999Z,52.40
2018-05-09T01:46:46.562Z,52.10
2018-05-09T01:49:14.263Z,52.10
2018-05-09T01:51:41.782Z,52.40
2018-05-09T01:54:09.367Z,52.60
2018-05-09T01:56:36.946Z,52.60
2018-05-09T01:59:04.510Z,52.80
2018-05-09T02:01:32.118Z,52.60
2018-05-09T02:04:00.473Z,52.60
2018-05-09T02:06:28.842Z,53.00
2018-05-09T02:08:56.405Z,52.50
2018-05-09T02:11:24.000Z,52.60
2018-05-09T02:13:52.322Z,52.80
2018-05-09T02:16:19.892Z,52.70
2018-05-09T02:18:47.471Z,52.70
2018-05-09T02:21:15.098Z,53.00
2018-05-09T02:23:42.677Z,53.20
2018-05-09T02:26:10.258Z,53.30
2018-05-09T02:28:37.865Z,53.20
2018-05-09T02:31:05.548Z,53.30
2018-05-09T02:33:33.062Z,53.30
2018-05-09T02:36:00.662Z,53.50
2018-05-09T02:38:28.269Z,53.60
2018-05-09T02:40:56.619Z,53.80
2018-05-09T02:43:24.207Z,53.80
2018-05-09T02:45:52.538Z,54.10
2018-05-09T02:48:20.131Z,53.90
2018-05-09T02:50:47.685Z,54.10
2018-05-09T02:53:15.242Z,54.30
2018-05-09T02:55:42.855Z,54.60
2018-05-09T02:58:10.423Z,54.70
2018-05-09T03:00:38.027Z,54.90
2018-05-09T03:03:05.593Z,54.90
2018-05-09T03:05:33.177Z,54.90
2018-05-09T03:08:01.531Z,54.90
2018-05-09T03:10:29.124Z,54.80
2018-05-09T03:12:56.731Z,54.80
2018-05-09T03:15:24.306Z,54.80
2018-05-09T03:17:51.919Z,54.80
2018-05-09T03:20:19.535Z,54.70
2018-05-09T03:22:47.119Z,55.00
2018-05-09T03:25:14.726Z,54.70
2018-05-09T03:27:43.046Z,54.90
2018-05-09T03:30:10.642Z,54.80
2018-05-09T03:32:38.198Z,54.90
2018-05-09T03:35:05.757Z,55.00
2018-05-09T03:37:33.376Z,54.80
2018-05-09T03:40:00.981Z,54.60
2018-05-09T03:42:28.538Z,54.60
2018-05-09T03:44:56.914Z,54.40
2018-05-09T03:47:24.474Z,54.30
2018-05-09T03:49:52.034Z,54.20
2018-05-09T03:52:19.623Z,54.00
2018-05-09T03:54:48.007Z,54.00
2018-05-09T03:57:16.354Z,53.90
2018-05-09T03:59:44.531Z,53.90
2018-05-09T04:02:24.126Z,53.90
2018-05-09T04:05:03.552Z,54.00
2018-05-09T04:07:43.057Z,53.90
2018-05-09T04:10:10.642Z,53.90
2018-05-09T04:12:38.230Z,53.90
2018-05-09T04:15:05.838Z,53.90
2018-05-09T04:17:34.270Z,54.00
2018-05-09T04:20:01.878Z,53.90
2018-05-09T04:22:29.434Z,53.90
2018-05-09T04:24:57.023Z,53.90
2018-05-09T04:27:24.587Z,54.00
2018-05-09T04:29:52.175Z,54.10
2018-05-09T04:32:19.731Z,54.00
2018-05-09T04:34:47.291Z,54.00
2018-05-09T04:37:14.874Z,53.90
2018-05-09T04:39:43.260Z,53.90
2018-05-09T04:42:11.834Z,53.90
2018-05-09T04:44:40.156Z,54.20
2018-05-09T04:47:07.710Z,54.20
2018-05-09T04:49:35.295Z,54.30
2018-05-09T04:52:03.838Z,54.50
2018-05-09T04:54:32.218Z,54.80
2018-05-09T04:57:00.579Z,55.00
2018-05-09T04:59:28.162Z,55.00
2018-05-09T05:01:56.482Z,55.00
2018-05-09T05:04:24.090Z,55.00
2018-05-09T05:06:51.651Z,55.00
2018-05-09T05:09:19.264Z,55.00
2018-05-09T05:11:46.851Z,55.10
2018-05-09T05:14:14.466Z,55.20
2018-05-09T05:16:42.022Z,55.90
2018-05-09T05:19:09.578Z,56.00
2018-05-09T05:21:37.190Z,56.10
2018-05-09T05:24:04.761Z,56.30
2018-05-09T05:26:32.362Z,56.30
2018-05-09T05:29:00.108Z,56.90
2018-05-09T05:31:27.690Z,56.60
2018-05-09T05:33:55.299Z,56.40
2018-05-09T05:36:22.886Z,56.60
2018-05-09T05:38:50.507Z,56.70
2018-05-09T05:41:18.106Z,56.90
2018-05-09T05:43:45.730Z,57.00
2018-05-09T05:46:13.286Z,57.70
2018-05-09T05:48:40.930Z,56.90
2018-05-09T05:51:08.490Z,56.90
2018-05-09T05:53:36.074Z,57.10
2018-05-09T05:56:03.736Z,57.30
2018-05-09T05:58:31.301Z,57.50
2018-05-09T06:00:58.908Z,57.70
2018-05-09T06:03:27.262Z,58.00
2018-05-09T06:05:54.875Z,57.90
2018-05-09T06:08:22.433Z,58.00
2018-05-09T06:10:50.027Z,57.80
2018-05-09T06:13:17.588Z,57.80
2018-05-09T06:15:45.175Z,58.00
2018-05-09T06:18:12.762Z,58.10
2018-05-09T06:20:41.159Z,58.00
2018-05-09T06:23:08.770Z,58.00
2018-05-09T06:25:36.358Z,58.50
2018-05-09T06:28:04.706Z,58.50
2018-05-09T06:30:32.262Z,58.40
2018-05-09T06:32:59.874Z,58.60
2018-05-09T06:35:27.463Z,59.00
2018-05-09T06:37:55.058Z,58.20
2018-05-09T06:40:22.648Z,58.70
2018-05-09T06:42:51.019Z,58.10
2018-05-09T06:45:19.366Z,57.80
2018-05-09T06:47:46.935Z,57.80
2018-05-09T06:50:14.522Z,58.00
2018-05-09T06:52:42.854Z,58.10
2018-05-09T06:55:10.438Z,58.00
2018-05-09T06:57:38.004Z,58.40
2018-05-09T07:00:05.620Z,58.60
2018-05-09T07:02:33.186Z,58.20
2018-05-09T07:05:00.747Z,58.20
2018-05-09T07:07:28.358Z,58.60
2018-05-09T07:09:55.948Z,57.90
2018-05-09T07:12:23.506Z,57.40
2018-05-09T07:14:51.068Z,57.90
2018-05-09T07:17:18.682Z,57.80
2018-05-09T07:19:46.270Z,57.80
2018-05-09T07:22:14.675Z,57.20
2018-05-09T07:24:42.966Z,57.70
2018-05-09T07:27:10.559Z,57.60
2018-05-09T07:29:38.127Z,58.10
2018-05-09T07:32:05.694Z,57.30
2018-05-09T07:34:34.079Z,58.00
2018-05-09T07:37:01.692Z,57.30
2018-05-09T07:39:29.282Z,58.20
2018-05-09T07:41:56.874Z,58.70
2018-05-09T07:44:25.244Z,57.40
2018-05-09T07:46:52.822Z,57.40
2018-05-09T07:49:20.407Z,57.00
2018-05-09T07:51:47.998Z,57.00
2018-05-09T07:54:16.346Z,57.00
2018-05-09T07:56:43.947Z,57.00
2018-05-09T07:59:12.278Z,58.00
2018-05-09T08:01:40.657Z,58.30
2018-05-09T08:04:08.216Z,58.30
2018-05-09T08:06:35.837Z,58.70
2018-05-09T08:09:03.445Z,58.50
2018-05-09T08:11:31.142Z,58.00
2018-05-09T08:13:58.750Z,57.90
2018-05-09T08:16:27.103Z,58.60
2018-05-09T08:18:54.691Z,58.00
2018-05-09T08:21:23.051Z,58.40
2018-05-09T08:23:50.728Z,57.60
2018-05-09T08:26:18.278Z,58.30
2018-05-09T08:28:45.866Z,58.30
2018-05-09T08:31:14.249Z,59.10
2018-05-09T08:33:42.642Z,59.00
2018-05-09T08:36:10.254Z,59.00
2018-05-09T08:38:37.818Z,59.40
2018-05-09T08:41:05.439Z,59.10
2018-05-09T08:43:33.140Z,58.20
2018-05-09T08:46:00.666Z,58.80
2018-05-09T08:48:28.274Z,58.00
2018-05-09T08:50:55.858Z,59.70
2018-05-09T08:53:24.182Z,58.40
2018-05-09T08:55:51.885Z,58.40
2018-05-09T08:58:19.411Z,58.40
2018-05-09T09:00:47.022Z,59.10
2018-05-09T09:03:14.611Z,59.70
2018-05-09T09:05:42.262Z,59.20
2018-05-09T09:08:09.830Z,59.10
2018-05-09T09:10:37.443Z,57.80
2018-05-09T09:13:05.030Z,59.00
2018-05-09T09:15:32.635Z,57.40
2018-05-09T09:18:00.255Z,58.20
2018-05-09T09:20:27.839Z,55.80
2018-05-09T09:22:56.203Z,58.50
2018-05-09T09:25:23.802Z,58.50
2018-05-09T09:27:51.404Z,57.10
2018-05-09T09:30:19.062Z,55.70
2018-05-09T09:32:47.435Z,59.00
2018-05-09T09:35:15.002Z,58.90
2018-05-09T09:37:42.584Z,56.90
2018-05-09T09:40:10.174Z,57.30
2018-05-09T09:42:37.798Z,57.80
2018-05-09T09:45:05.426Z,55.20
2018-05-09T09:47:33.007Z,54.60
2018-05-09T09:50:00.580Z,55.30
2018-05-09T09:52:28.941Z,58.30
2018-05-09T09:54:56.503Z,58.20
2018-05-09T09:57:24.126Z,58.70
2018-05-09T09:59:51.721Z,58.00
2018-05-09T10:02:19.295Z,56.40
2018-05-09T10:04:46.949Z,55.10
2018-05-09T10:07:15.303Z,54.80
2018-05-09T10:09:42.992Z,54.80
2018-05-09T10:12:10.634Z,54.00
2018-05-09T10:14:38.277Z,57.20
2018-05-09T10:17:05.871Z,58.40
2018-05-09T10:19:34.259Z,56.50
2018-05-09T10:22:02.739Z,55.80
2018-05-09T10:24:31.367Z,52.60
2018-05-09T10:26:58.924Z,52.60
2018-05-09T10:29:26.490Z,54.70
2018-05-09T10:31:54.158Z,54.00
2018-05-09T10:34:21.763Z,55.80
2018-05-09T10:36:50.115Z,55.80
2018-05-09T10:39:17.735Z,55.70
2018-05-09T10:41:45.305Z,57.40
2018-05-09T10:44:12.862Z,53.60
2018-05-09T10:46:40.536Z,51.20
2018-05-09T10:49:08.135Z,52.00
2018-05-09T10:51:35.715Z,52.90
2018-05-09T10:54:04.200Z,54.60
2018-05-09T10:56:32.535Z,53.20
2018-05-09T10:59:00.948Z,53.10
2018-05-09T11:01:29.343Z,56.50
2018-05-09T11:03:56.925Z,56.40
2018-05-09T11:06:24.491Z,57.50
2018-05-09T11:08:52.092Z,53.40
2018-05-09T11:11:19.679Z,53.20
2018-05-09T11:13:47.321Z,54.20
2018-05-09T11:16:14.886Z,53.70
2018-05-09T11:18:42.495Z,56.00
2018-05-09T11:21:10.135Z,56.40
2018-05-09T11:23:37.694Z,57.10
2018-05-09T11:26:05.290Z,57.50
2018-05-09T11:28:32.887Z,54.30
2018-05-09T11:31:00.510Z,54.20
2018-05-09T11:33:28.127Z,53.00
2018-05-09T11:35:56.420Z,54.30
2018-05-09T11:38:24.075Z,54.20
2018-05-09T11:40:51.639Z,54.50
2018-05-09T11:43:19.207Z,52.80
2018-05-09T11:45:46.839Z,54.50
2018-05-09T11:48:14.403Z,56.50
2018-05-09T11:50:42.014Z,53.10
2018-05-09T11:53:09.608Z,54.30
2018-05-09T11:55:37.222Z,52.30
2018-05-09T11:58:04.876Z,54.10
2018-05-09T12:00:32.461Z,54.60
2018-05-09T12:03:00.027Z,55.10
2018-05-09T12:05:27.650Z,53.60
2018-05-09T12:07:55.235Z,54.50
2018-05-09T12:10:22.833Z,54.70
2018-05-09T12:12:51.205Z,52.80
2018-05-09T12:15:19.529Z,53.30
2018-05-09T12:17:47.118Z,53.30
2018-05-09T12:20:14.749Z,52.90
2018-05-09T12:22:42.318Z,53.80
2018-05-09T12:25:09.982Z,54.90
2018-05-09T12:27:37.578Z,54.70
2018-05-09T12:30:05.180Z,53.60
2018-05-09T12:32:32.834Z,52.10
2018-05-09T12:35:00.436Z,52.70
2018-05-09T12:37:28.032Z,53.20
2018-05-09T12:39:56.422Z,55.50
2018-05-09T12:42:24.788Z,54.20
2018-05-09T12:44:53.175Z,56.10
2018-05-09T12:47:21.503Z,56.40
2018-05-09T12:49:49.091Z,56.40
2018-05-09T12:52:16.739Z,56.40
2018-05-09T12:54:44.327Z,56.00
2018-05-09T12:57:12.687Z,55.50
2018-05-09T12:59:40.331Z,55.00
2018-05-09T13:02:07.894Z,55.50
2018-05-09T13:04:35.461Z,54.90
2018-05-09T13:07:03.075Z,56.00
2018-05-09T13:09:30.657Z,55.50
2018-05-09T13:11:58.252Z,55.80
2018-05-09T13:14:25.876Z,56.50
2018-05-09T13:16:54.363Z,54.50
2018-05-09T13:19:21.950Z,54.10
2018-05-09T13:21:49.580Z,54.60
2018-05-09T13:24:17.139Z,54.50
2018-05-09T13:26:44.734Z,55.00
2018-05-09T13:29:12.323Z,55.10
2018-05-09T13:31:40.761Z,57.20
2018-05-09T13:34:08.331Z,57.00
2018-05-09T13:36:35.930Z,56.00
2018-05-09T13:39:04.335Z,55.00
2018-05-09T13:41:31.934Z,55.00
2018-05-09T13:43:59.500Z,56.50
2018-05-09T13:46:27.130Z,56.60
2018-05-09T13:48:54.735Z,57.30
2018-05-09T13:51:25.872Z,56.70
2018-05-09T13:53:53.520Z,52.90
2018-05-09T13:56:21.086Z,54.70
2018-05-09T13:58:48.675Z,54.80
2018-05-09T14:01:16.299Z,54.40
2018-05-09T14:03:43.941Z,54.20
2018-05-09T14:06:11.547Z,55.30
2018-05-09T14:08:39.139Z,56.60
2018-05-09T14:11:07.471Z,55.40
2018-05-09T14:13:35.103Z,55.40
2018-05-09T14:16:02.694Z,54.90
2018-05-09T14:18:30.259Z,54.60
2018-05-09T14:20:57.905Z,55.00
2018-05-09T14:23:25.492Z,54.70
2018-05-09T14:25:53.051Z,55.10
2018-05-09T14:28:20.679Z,55.10
2018-05-09T14:30:48.262Z,55.00
2018-05-09T14:33:15.824Z,54.50
2018-05-09T14:35:43.454Z,54.10
2018-05-09T14:38:11.038Z,54.20
2018-05-09T14:40:38.620Z,54.30
2018-05-09T14:43:06.255Z,54.20
2018-05-09T14:45:33.839Z,54.20
2018-05-09T14:48:01.414Z,54.50
2018-05-09T14:50:29.799Z,56.00
2018-05-09T14:52:58.150Z,55.80
2018-05-09T14:55:25.714Z,55.80
2018-05-09T14:57:53.435Z,55.80
2018-05-09T15:00:21.049Z,54.70
2018-05-09T15:02:48.587Z,55.40
2018-05-09T15:05:16.203Z,55.90
2018-05-09T15:07:43.797Z,57.00
2018-05-09T15:10:11.399Z,56.70
2018-05-09T15:12:39.022Z,56.40
2018-05-09T15:15:06.612Z,57.40
2018-05-09T15:17:34.269Z,57.90
2018-05-09T15:20:01.863Z,56.30
2018-05-09T15:22:29.447Z,56.30
2018-05-09T15:24:57.114Z,56.10
2018-05-09T15:27:24.704Z,56.50
2018-05-09T15:29:53.026Z,56.60
2018-05-09T15:32:20.679Z,56.40
2018-05-09T15:34:48.266Z,56.30
2018-05-09T15:37:15.863Z,56.70
2018-05-09T15:39:44.251Z,57.10
2018-05-09T15:42:12.607Z,57.00
2018-05-09T15:44:40.982Z,56.70
2018-05-09T15:47:09.366Z,56.40
2018-05-09T15:49:37.695Z,56.10
2018-05-09T15:52:05.401Z,56.10
2018-05-09T15:54:33.754Z,55.50
2018-05-09T15:57:01.414Z,55.50
2018-05-09T15:59:29.068Z,55.50
2018-05-09T16:01:57.483Z,55.40
2018-05-09T16:04:25.054Z,55.40
2018-05-09T16:06:52.660Z,55.20
2018-05-09T16:09:20.219Z,55.10
2018-05-09T16:11:47.861Z,54.90
2018-05-09T16:14:16.206Z,54.50
2018-05-09T16:16:43.770Z,54.50
2018-05-09T16:19:11.408Z,54.70
2018-05-09T16:21:38.993Z,55.20
2018-05-09T16:24:06.579Z,55.40
2018-05-09T16:26:34.966Z,55.60
2018-05-09T16:29:03.295Z,55.10
2018-05-09T16:31:30.919Z,54.90
2018-05-09T16:33:58.502Z,54.60
2018-05-09T16:36:26.093Z,54.40
2018-05-09T16:38:53.787Z,54.10
2018-05-09T16:41:22.137Z,53.50
2018-05-09T16:43:49.698Z,53.50
2018-05-09T16:46:17.346Z,53.20
2018-05-09T16:48:44.930Z,53.10
2018-05-09T16:51:12.545Z,52.90
2018-05-09T16:53:40.165Z,53.50
2018-05-09T16:56:07.743Z,52.50
2018-05-09T16:58:35.302Z,52.60
2018-05-09T17:01:02.938Z,52.70
2018-05-09T17:03:30.534Z,52.70
2018-05-09T17:05:58.891Z,52.60
2018-05-09T17:08:26.615Z,52.50
2018-05-09T17:10:54.174Z,52.40
2018-05-09T17:13:21.732Z,52.40
2018-05-09T17:15:49.370Z,52.20
2018-05-09T17:18:17.039Z,52.30
2018-05-09T17:20:44.634Z,53.00
2018-05-09T17:23:12.270Z,54.20
2018-05-09T17:25:39.836Z,55.00
2018-05-09T17:28:07.483Z,54.50
2018-05-09T17:30:35.148Z,54.60
2018-05-09T17:33:02.762Z,56.20
2018-05-09T17:35:30.366Z,56.80
2018-05-09T17:37:58.010Z,56.60
2018-05-09T17:40:25.598Z,57.10
2018-05-09T17:42:53.167Z,57.90
2018-05-09T17:45:20.834Z,57.90
2018-05-09T17:47:48.401Z,58.70
2018-05-09T17:50:15.998Z,59.40
2018-05-09T17:52:43.639Z,57.60
2018-05-09T17:55:11.234Z,56.50
2018-05-09T17:57:38.822Z,58.60
2018-05-09T18:00:07.266Z,58.10
2018-05-09T18:02:38.987Z,58.60
2018-05-09T18:05:06.571Z,58.60
2018-05-09T18:07:34.162Z,59.20
2018-05-09T18:10:01.753Z,59.50
2018-05-09T18:12:29.347Z,59.80
2018-05-09T18:14:57.699Z,60.30
2018-05-09T18:17:25.311Z,60.20
2018-05-09T18:19:52.938Z,60.30
2018-05-09T18:22:31.011Z,60.00
2018-05-09T18:25:00.602Z,59.90
2018-05-09T18:27:32.635Z,59.60
2018-05-09T18:30:00.213Z,59.70
2018-05-09T18:32:27.910Z,59.70
2018-05-09T18:34:55.503Z,59.60
2018-05-09T18:37:23.119Z,59.50
2018-05-09T18:39:51.034Z,59.60
2018-05-09T18:42:18.586Z,58.90
2018-05-09T18:44:46.231Z,58.30
2018-05-09T18:47:13.807Z,58.30
2018-05-09T18:49:41.394Z,58.20
2018-05-09T18:52:08.961Z,57.70
2018-05-09T18:54:37.319Z,56.80
2018-05-09T18:57:04.884Z,56.80
2018-05-09T18:59:32.511Z,57.10
2018-05-09T19:02:00.101Z,57.10
2018-05-09T19:04:27.695Z,57.00
2018-05-09T19:06:56.024Z,56.90
2018-05-09T19:09:23.614Z,56.90
2018-05-09T19:11:51.222Z,56.90
2018-05-09T19:14:18.792Z,56.80
2018-05-09T19:16:46.410Z,56.70
2018-05-09T19:19:13.975Z,56.80
2018-05-09T19:21:41.558Z,56.80
2018-05-09T19:24:09.116Z,56.70
2018-05-09T19:26:36.998Z,56.90
2018-05-09T19:29:04.578Z,56.70
2018-05-09T19:31:32.203Z,56.70
2018-05-09T19:33:59.791Z,56.60
2018-05-09T19:36:27.363Z,56.60
2018-05-09T19:38:55.753Z,56.30
2018-05-09T19:41:23.310Z,56.30
2018-05-09T19:43:50.931Z,56.50
2018-05-09T19:46:18.487Z,56.50
2018-05-09T19:48:46.075Z,56.40
2018-05-09T19:51:13.655Z,56.60
2018-05-09T19:53:41.354Z,56.60
2018-05-09T19:56:08.974Z,56.60
2018-05-09T19:58:37.331Z,56.60
2018-05-09T20:01:05.697Z,56.20
2018-05-09T20:03:33.263Z,56.70
2018-05-09T20:06:00.873Z,56.60
2018-05-09T20:08:28.469Z,56.30
2018-05-09T20:10:56.082Z,56.30
2018-05-09T20:13:23.679Z,56.30
2018-05-09T20:15:51.294Z,56.10
2018-05-09T20:18:19.642Z,56.00
2018-05-09T20:20:47.251Z,56.00
2018-05-09T20:23:14.838Z,55.80
2018-05-09T20:25:42.419Z,56.60
2018-05-09T20:28:10.031Z,57.30
2018-05-09T20:30:43.194Z,57.40
2018-05-09T20:33:10.818Z,57.20
2018-05-09T20:35:38.406Z,56.90
2018-05-09T20:38:06.210Z,56.80
2018-05-09T20:40:33.830Z,56.90
2018-05-09T20:43:01.386Z,56.50
2018-05-09T20:45:33.274Z,56.30
2018-05-09T20:48:00.830Z,56.10
2018-05-09T20:50:28.410Z,55.90
2018-05-09T20:52:56.027Z,56.00
2018-05-09T20:55:29.670Z,56.10
2018-05-09T20:57:57.235Z,56.10
2018-05-09T21:00:24.823Z,56.00
2018-05-09T21:02:53.189Z,56.30
2018-05-09T21:05:20.774Z,56.20
2018-05-09T21:07:56.153Z,57.20
2018-05-09T21:10:23.741Z,56.80
2018-05-09T21:12:51.327Z,57.10
2018-05-09T21:15:19.710Z,56.90
2018-05-09T21:17:48.053Z,56.90
2018-05-09T21:20:15.780Z,56.90
2018-05-09T21:22:44.034Z,56.50
2018-05-09T21:25:11.594Z,56.50
2018-05-09T21:27:39.240Z,56.60
2018-05-09T21:30:07.561Z,56.40
2018-05-09T21:32:35.147Z,56.40
2018-05-09T21:35:02.703Z,56.30
2018-05-09T21:37:30.346Z,56.30
2018-05-09T21:39:57.909Z,56.40
2018-05-09T21:42:25.471Z,56.70
2018-05-09T21:44:53.086Z,57.00
2018-05-09T21:47:20.674Z,57.20
2018-05-09T21:49:48.283Z,58.10
2018-05-09T21:52:15.899Z,57.40
2018-05-09T21:54:43.487Z,57.40
2018-05-09T21:57:11.070Z,57.40
2018-05-09T21:59:38.679Z,57.40
2018-05-09T22:02:06.245Z,57.20
2018-05-09T22:04:33.850Z,57.10
2018-05-09T22:07:01.411Z,57.20
2018-05-09T22:09:28.994Z,57.00
2018-05-09T22:11:56.558Z,56.80
2018-05-09T22:14:24.141Z,56.80
2018-05-09T22:16:52.475Z,56.50
2018-05-09T22:19:20.065Z,56.50
2018-05-09T22:21:48.434Z,56.40
2018-05-09T22:24:16.023Z,56.30
2018-05-09T22:26:44.398Z,56.00
2018-05-09T22:29:12.742Z,55.80
2018-05-09T22:31:40.350Z,55.70
2018-05-09T22:34:07.947Z,55.80
2018-05-09T22:36:36.303Z,55.50
2018-05-09T22:39:03.868Z,56.10
2018-05-09T22:41:32.221Z,55.90
2018-05-09T22:43:59.778Z,55.50
2018-05-09T22:46:27.358Z,55.50
2018-05-09T22:48:54.997Z,55.30
2018-05-09T22:51:23.717Z,55.30
2018-05-09T22:53:52.043Z,55.30
2018-05-09T22:56:19.625Z,55.20
2018-05-09T22:58:47.210Z,55.30
2018-05-09T23:01:14.835Z,55.30
2018-05-09T23:03:42.422Z,55.30
2018-05-09T23:06:10.041Z,55.30
2018-05-09T23:08:37.650Z,55.40
2018-05-09T23:11:05.216Z,55.30
2018-05-09T23:13:32.802Z,55.40
2018-05-09T23:16:01.266Z,55.50
2018-05-09T23:18:29.618Z,56.10
2018-05-09T23:20:57.218Z,55.50
2018-05-09T23:23:25.542Z,55.60
2018-05-09T23:25:53.099Z,55.60
2018-05-09T23:28:20.694Z,55.50
2018-05-09T23:30:48.278Z,55.50
2018-05-09T23:33:16.614Z,55.60
2018-05-09T23:35:44.209Z,55.50
2018-05-09T23:38:12.562Z,55.60
2018-05-09T23:40:40.208Z,55.50
2018-05-09T23:43:08.511Z,56.10
2018-05-09T23:45:36.070Z,55.40
2018-05-09T23:48:03.656Z,55.40
2018-05-09T23:50:31.242Z,55.50
2018-05-09T23:52:58.871Z,55.40
2018-05-09T23:55:26.453Z,55.40
2018-05-09T23:57:54.038Z,55.30
